createdAt,value
2018-03-18T00:01:17.428Z,-0.30
2018-03-18T00:03:44.912Z,-0.30
2018-03-18T00:06:12.377Z,-0.30
2018-03-18T00:08:39.825Z,-0.20
2018-03-18T00:11:07.299Z,-0.20
2018-03-18T00:13:34.765Z,-0.20
2018-03-18T00:16:02.227Z,-0.20
2018-03-18T00:18:29.697Z,-0.20
2018-03-18T00:20:57.257Z,-0.10
2018-03-18T00:23:24.771Z,-0.10
2018-03-18T00:25:52.271Z,-0.10
2018-03-18T00:28:19.824Z,-0.20
2018-03-18T00:30:47.387Z,-0.10
2018-03-18T00:33:14.968Z,-0.10
2018-03-18T00:35:42.436Z,-0.10
2018-03-18T00:38:09.899Z,0.00
2018-03-18T00:40:37.363Z,0.00
2018-03-18T00:43:04.836Z,-0.10
2018-03-18T00:45:32.323Z,0.00
2018-03-18T00:47:59.806Z,0.00
2018-03-18T00:50:27.256Z,-0.10
2018-03-18T00:52:54.727Z,-0.10
2018-03-18T00:55:22.211Z,-0.10
2018-03-18T00:57:49.671Z,0.00
2018-03-18T01:00:17.129Z,0.00
2018-03-18T01:02:44.596Z,0.00
2018-03-18T01:05:12.067Z,0.00
2018-03-18T01:07:39.552Z,0.00
2018-03-18T01:10:07.018Z,0.00
2018-03-18T01:12:34.476Z,0.00
2018-03-18T01:15:01.943Z,0.00
2018-03-18T01:17:29.419Z,0.10
2018-03-18T01:19:56.876Z,0.00
2018-03-18T01:22:24.331Z,0.10
2018-03-18T01:24:51.806Z,0.10
2018-03-18T01:27:19.263Z,0.00
2018-03-18T01:29:46.718Z,0.00
2018-03-18T01:32:14.196Z,0.00
2018-03-18T01:34:41.647Z,0.00
2018-03-18T01:37:09.894Z,0.00
2018-03-18T01:39:37.371Z,0.00
2018-03-18T01:42:04.827Z,0.00
2018-03-18T01:44:32.288Z,0.00
2018-03-18T01:46:59.795Z,0.00
2018-03-18T01:49:27.252Z,-0.10
2018-03-18T01:51:54.706Z,-0.10
2018-03-18T01:54:22.191Z,-0.10
2018-03-18T01:56:49.759Z,-0.10
2018-03-18T01:59:17.215Z,-0.10
2018-03-18T02:01:44.697Z,-0.10
2018-03-18T02:04:12.146Z,-0.10
2018-03-18T02:06:39.690Z,-0.10
2018-03-18T02:09:08.045Z,-0.10
2018-03-18T02:11:35.599Z,-0.10
2018-03-18T02:14:03.055Z,-0.20
2018-03-18T02:16:30.651Z,-0.20
2018-03-18T02:18:58.106Z,-0.20
2018-03-18T02:21:25.582Z,-0.20
2018-03-18T02:23:53.208Z,-0.20
2018-03-18T02:26:20.676Z,-0.20
2018-03-18T02:28:48.123Z,-0.20
2018-03-18T02:31:16.379Z,-0.10
2018-03-18T02:33:43.840Z,-0.20
2018-03-18T02:36:11.323Z,-0.10
2018-03-18T02:38:38.806Z,-0.20
2018-03-18T02:41:06.263Z,-0.10
2018-03-18T02:43:33.722Z,-0.10
2018-03-18T02:46:01.257Z,-0.10
2018-03-18T02:48:28.707Z,-0.10
2018-03-18T02:50:56.940Z,-0.10
2018-03-18T02:53:24.443Z,-0.10
2018-03-18T02:55:51.896Z,-0.10
2018-03-18T02:58:19.352Z,-0.20
2018-03-18T03:00:46.841Z,-0.10
2018-03-18T03:03:14.295Z,-0.10
2018-03-18T03:05:41.755Z,-0.10
2018-03-18T03:08:09.255Z,-0.10
2018-03-18T03:10:36.820Z,-0.20
2018-03-18T03:13:04.291Z,-0.10
2018-03-18T03:15:31.780Z,-0.10
2018-03-18T03:17:59.239Z,-0.10
2018-03-18T03:20:26.695Z,-0.10
2018-03-18T03:22:54.263Z,-0.20
2018-03-18T03:25:21.728Z,-0.10
2018-03-18T03:27:49.214Z,-0.10
2018-03-18T03:30:16.691Z,-0.10
2018-03-18T03:32:44.144Z,-0.10
2018-03-18T03:35:11.619Z,-0.10
2018-03-18T03:37:39.091Z,-0.10
2018-03-18T03:40:06.612Z,-0.20
2018-03-18T03:42:34.091Z,-0.10
2018-03-18T03:45:01.548Z,-0.10
2018-03-18T03:47:29.112Z,-0.10
2018-03-18T03:49:57.356Z,-0.10
2018-03-18T03:52:24.847Z,-0.10
2018-03-18T03:54:52.403Z,-0.10
2018-03-18T03:57:19.879Z,-0.20
2018-03-18T03:59:47.442Z,-0.20
2018-03-18T04:02:14.900Z,-0.20
2018-03-18T04:04:42.396Z,-0.20
2018-03-18T04:07:09.860Z,-0.10
2018-03-18T04:09:37.483Z,-0.10
2018-03-18T04:12:05.008Z,-0.10
2018-03-18T04:14:32.468Z,-0.10
2018-03-18T04:16:59.963Z,-0.20
2018-03-18T04:19:28.216Z,-0.10
2018-03-18T04:21:55.666Z,-0.20
2018-03-18T04:24:23.127Z,-0.20
2018-03-18T04:26:50.606Z,-0.20
2018-03-18T04:29:18.066Z,-0.20
2018-03-18T04:31:45.531Z,-0.20
2018-03-18T04:34:13.102Z,-0.20
2018-03-18T04:36:41.323Z,-0.30
2018-03-18T04:39:09.219Z,-0.30
2018-03-18T04:41:36.700Z,-0.20
2018-03-18T04:44:04.160Z,-0.20
2018-03-18T04:46:31.629Z,-0.20
2018-03-18T04:48:59.106Z,-0.20
2018-03-18T04:51:27.323Z,-0.40
2018-03-18T04:53:55.556Z,-0.40
2018-03-18T04:56:23.047Z,-0.40
2018-03-18T04:58:50.610Z,-0.50
2018-03-18T05:01:18.068Z,-0.50
2018-03-18T05:03:45.543Z,-0.60
2018-03-18T05:06:13.036Z,-0.60
2018-03-18T05:08:40.492Z,-0.80
2018-03-18T05:11:07.972Z,-0.80
2018-03-18T05:13:35.432Z,-1.00
2018-03-18T05:16:02.891Z,-1.00
2018-03-18T05:18:30.371Z,-1.10
2018-03-18T05:20:57.835Z,-1.10
2018-03-18T05:23:25.291Z,-1.10
2018-03-18T05:25:52.773Z,-1.10
2018-03-18T05:28:20.237Z,-1.20
2018-03-18T05:30:47.704Z,-1.20
2018-03-18T05:33:15.180Z,-1.20
2018-03-18T05:35:42.643Z,-1.20
2018-03-18T05:38:10.102Z,-1.20
2018-03-18T05:40:37.588Z,-1.20
2018-03-18T05:43:05.091Z,-1.20
2018-03-18T05:45:32.550Z,-1.20
2018-03-18T05:48:00.032Z,-1.20
2018-03-18T05:50:27.603Z,-1.20
2018-03-18T05:52:55.061Z,-1.20
2018-03-18T05:55:22.544Z,-1.20
2018-03-18T05:57:50.010Z,-1.20
2018-03-18T06:00:17.463Z,-1.20
2018-03-18T06:02:44.936Z,-1.10
2018-03-18T06:05:12.391Z,-1.10
2018-03-18T06:07:39.846Z,-1.20
2018-03-18T06:10:07.332Z,-1.20
2018-03-18T06:12:34.792Z,-1.20
2018-03-18T06:15:02.350Z,-1.20
2018-03-18T06:17:29.827Z,-1.20
2018-03-18T06:19:57.286Z,-1.10
2018-03-18T06:22:24.739Z,-1.10
2018-03-18T06:24:53.033Z,-1.10
2018-03-18T06:27:20.568Z,-1.20
2018-03-18T06:29:48.025Z,-1.10
2018-03-18T06:32:15.495Z,-1.00
2018-03-18T06:34:42.979Z,-1.10
2018-03-18T06:37:10.455Z,-1.10
2018-03-18T06:39:37.943Z,-1.10
2018-03-18T06:42:05.407Z,-1.00
2018-03-18T06:44:33.883Z,-1.00
2018-03-18T06:47:01.487Z,-1.00
2018-03-18T06:49:29.717Z,-1.00
2018-03-18T06:51:57.179Z,-1.00
2018-03-18T06:54:24.635Z,-1.00
2018-03-18T06:56:52.118Z,-1.00
2018-03-18T06:59:19.572Z,-1.10
2018-03-18T07:01:47.097Z,-1.10
2018-03-18T07:04:14.560Z,-1.10
2018-03-18T07:06:42.031Z,-1.10
2018-03-18T07:09:09.503Z,-1.10
2018-03-18T07:11:36.974Z,-1.00
2018-03-18T07:14:04.431Z,-1.00
2018-03-18T07:16:31.902Z,-0.90
2018-03-18T07:18:59.364Z,-0.90
2018-03-18T07:21:26.849Z,-0.90
2018-03-18T07:23:54.318Z,-0.90
2018-03-18T07:26:21.799Z,-0.80
2018-03-18T07:28:49.275Z,-0.70
2018-03-18T07:31:16.744Z,-0.50
2018-03-18T07:33:44.216Z,-0.40
2018-03-18T07:36:11.671Z,-0.30
2018-03-18T07:38:39.267Z,-0.10
2018-03-18T07:41:06.814Z,-0.20
2018-03-18T07:43:34.300Z,-0.20
2018-03-18T07:46:01.819Z,-0.20
2018-03-18T07:48:29.295Z,-0.20
2018-03-18T07:50:56.755Z,-0.30
2018-03-18T07:53:24.227Z,-0.30
2018-03-18T07:55:51.688Z,-0.30
2018-03-18T07:58:19.157Z,-0.20
2018-03-18T08:00:46.736Z,-0.10
2018-03-18T08:03:14.211Z,-0.10
2018-03-18T08:05:41.676Z,-0.10
2018-03-18T08:08:09.365Z,-0.10
2018-03-18T08:10:36.868Z,0.00
2018-03-18T08:13:04.332Z,-0.10
2018-03-18T08:15:31.914Z,-0.10
2018-03-18T08:17:59.375Z,-0.10
2018-03-18T08:20:26.847Z,0.00
2018-03-18T08:22:54.304Z,0.00
2018-03-18T08:25:21.796Z,0.00
2018-03-18T08:27:49.244Z,0.10
2018-03-18T08:30:16.711Z,0.20
2018-03-18T08:32:44.174Z,0.20
2018-03-18T08:35:11.712Z,0.20
2018-03-18T08:37:39.946Z,0.50
2018-03-18T08:40:07.425Z,0.50
2018-03-18T08:42:34.874Z,0.50
2018-03-18T08:45:02.355Z,0.50
2018-03-18T08:47:29.819Z,0.60
2018-03-18T08:51:29.663Z,0.70
2018-03-18T08:53:57.204Z,0.70
2018-03-18T08:56:24.775Z,0.70
2018-03-18T08:58:53.167Z,0.80
2018-03-18T09:01:20.668Z,0.80
2018-03-18T09:03:48.082Z,0.80
2018-03-18T09:06:16.315Z,0.80
2018-03-18T09:08:43.785Z,0.90
2018-03-18T09:11:11.304Z,0.90
2018-03-18T09:13:38.851Z,0.90
2018-03-18T09:16:06.335Z,1.00
2018-03-18T09:18:33.800Z,1.20
2018-03-18T09:21:01.264Z,1.30
2018-03-18T09:23:28.838Z,1.30
2018-03-18T09:25:56.291Z,0.90
2018-03-18T09:28:23.751Z,1.00
2018-03-18T09:30:51.208Z,1.10
2018-03-18T09:33:18.720Z,1.20
2018-03-18T09:35:46.176Z,1.20
2018-03-18T09:38:13.659Z,1.30
2018-03-18T09:40:41.159Z,1.40
2018-03-18T09:43:09.403Z,1.40
2018-03-18T09:45:36.891Z,1.40
2018-03-18T09:48:04.383Z,1.50
2018-03-18T09:50:32.043Z,2.00
2018-03-18T09:52:59.564Z,2.20
2018-03-18T09:55:26.975Z,2.20
2018-03-18T09:57:54.445Z,2.10
2018-03-18T10:00:21.903Z,2.10
2018-03-18T10:02:49.361Z,2.10
2018-03-18T10:05:16.832Z,2.00
2018-03-18T10:07:44.280Z,1.90
2018-03-18T10:10:11.743Z,1.70
2018-03-18T10:12:39.316Z,1.80
2018-03-18T10:15:07.544Z,1.70
2018-03-18T10:17:35.000Z,1.70
2018-03-18T10:20:02.492Z,1.60
2018-03-18T10:22:29.945Z,1.60
2018-03-18T10:24:57.408Z,1.60
2018-03-18T10:27:24.956Z,1.70
2018-03-18T10:29:52.475Z,1.90
2018-03-18T10:32:19.940Z,1.80
2018-03-18T10:34:47.410Z,1.80
2018-03-18T10:37:14.857Z,1.90
2018-03-18T10:39:42.311Z,1.90
2018-03-18T10:42:09.776Z,1.90
2018-03-18T10:44:37.219Z,2.00
2018-03-18T10:47:05.456Z,2.00
2018-03-18T10:49:32.908Z,2.00
2018-03-18T10:52:00.390Z,2.10
2018-03-18T10:54:27.857Z,2.30
2018-03-18T10:56:55.343Z,2.40
2018-03-18T10:59:22.860Z,2.50
2018-03-18T11:01:55.247Z,2.60
2018-03-18T11:04:23.491Z,2.20
2018-03-18T11:06:50.947Z,2.20
2018-03-18T11:09:18.400Z,2.20
2018-03-18T11:11:45.863Z,2.30
2018-03-18T11:14:13.314Z,2.30
2018-03-18T11:16:41.592Z,2.30
2018-03-18T11:19:09.044Z,2.30
2018-03-18T11:21:36.511Z,2.40
2018-03-18T11:24:03.967Z,2.10
2018-03-18T11:26:31.420Z,2.30
2018-03-18T11:28:58.932Z,2.60
2018-03-18T11:31:26.392Z,2.80
2018-03-18T11:33:53.861Z,3.00
2018-03-18T11:36:21.307Z,3.10
2018-03-18T11:38:48.775Z,3.00
2018-03-18T11:41:16.221Z,3.10
2018-03-18T11:43:43.687Z,3.10
2018-03-18T11:46:11.154Z,2.90
2018-03-18T11:48:39.383Z,2.60
2018-03-18T11:51:06.859Z,2.60
2018-03-18T11:53:34.322Z,2.60
2018-03-18T11:56:01.827Z,2.60
2018-03-18T11:58:29.426Z,2.40
2018-03-18T12:00:56.835Z,2.40
2018-03-18T12:03:24.311Z,2.40
2018-03-18T12:05:51.880Z,2.40
2018-03-18T12:08:31.199Z,2.20
2018-03-18T12:10:58.670Z,2.10
2018-03-18T12:13:26.108Z,2.20
2018-03-18T12:15:54.336Z,2.20
2018-03-18T12:18:21.826Z,2.20
2018-03-18T12:20:49.410Z,2.30
2018-03-18T12:23:16.864Z,2.30
2018-03-18T12:25:44.326Z,2.40
2018-03-18T12:28:11.775Z,2.60
2018-03-18T12:30:39.284Z,2.80
2018-03-18T12:33:06.731Z,3.00
2018-03-18T12:35:34.210Z,3.10
2018-03-18T12:38:01.663Z,3.30
2018-03-18T12:40:30.499Z,3.30
2018-03-18T12:43:09.752Z,3.40
2018-03-18T12:45:37.230Z,3.50
2018-03-18T12:48:04.791Z,3.60
2018-03-18T12:50:32.243Z,3.60
2018-03-18T12:52:59.703Z,3.40
2018-03-18T12:55:27.188Z,3.50
2018-03-18T12:57:54.651Z,3.50
2018-03-18T13:00:22.128Z,3.60
2018-03-18T13:02:49.703Z,3.70
2018-03-18T13:05:17.151Z,3.70
2018-03-18T13:07:44.616Z,3.80
2018-03-18T13:10:12.170Z,3.80
2018-03-18T13:12:39.633Z,3.80
2018-03-18T13:15:07.159Z,4.10
2018-03-18T13:17:34.623Z,5.00
2018-03-18T13:20:02.092Z,6.50
2018-03-18T13:22:29.572Z,7.00
2018-03-18T13:24:57.032Z,7.50
2018-03-18T13:27:24.483Z,7.90
2018-03-18T13:29:51.947Z,7.90
2018-03-18T13:32:19.414Z,8.60
2018-03-18T13:34:46.892Z,8.90
2018-03-18T13:37:14.351Z,9.30
2018-03-18T13:39:41.911Z,9.50
2018-03-18T13:42:09.463Z,9.10
2018-03-18T13:44:36.956Z,9.00
2018-03-18T13:47:04.426Z,8.80
2018-03-18T13:49:32.871Z,8.10
2018-03-18T13:52:00.347Z,8.10
2018-03-18T13:54:27.850Z,7.70
2018-03-18T13:56:55.396Z,7.50
2018-03-18T13:59:22.903Z,7.40
2018-03-18T14:01:50.420Z,8.00
2018-03-18T14:04:17.987Z,7.80
2018-03-18T14:06:45.431Z,7.90
2018-03-18T14:09:12.891Z,8.10
2018-03-18T14:11:40.398Z,8.40
2018-03-18T14:14:07.852Z,8.50
2018-03-18T14:16:35.352Z,8.50
2018-03-18T14:19:03.040Z,9.00
2018-03-18T14:21:30.563Z,9.00
2018-03-18T14:23:58.011Z,9.00
2018-03-18T14:26:25.476Z,9.20
2018-03-18T14:28:52.924Z,9.10
2018-03-18T14:31:21.259Z,9.20
2018-03-18T14:33:48.696Z,9.20
2018-03-18T14:36:17.052Z,9.20
2018-03-18T14:38:44.455Z,9.20
2018-03-18T14:41:12.685Z,8.60
2018-03-18T14:43:40.143Z,8.50
2018-03-18T14:46:07.604Z,7.70
2018-03-18T14:48:35.111Z,7.40
2018-03-18T14:51:02.567Z,6.90
2018-03-18T14:53:30.175Z,6.70
2018-03-18T14:55:57.715Z,6.40
2018-03-18T14:58:25.197Z,6.30
2018-03-18T15:00:52.652Z,6.00
2018-03-18T15:03:20.147Z,5.90
2018-03-18T15:05:47.605Z,5.70
2018-03-18T15:08:15.068Z,5.50
2018-03-18T15:10:42.538Z,5.40
2018-03-18T15:13:10.000Z,5.20
2018-03-18T15:15:37.447Z,5.20
2018-03-18T15:18:04.917Z,4.90
2018-03-18T15:20:32.427Z,4.80
2018-03-18T15:22:59.945Z,4.80
2018-03-18T15:25:27.359Z,4.50
2018-03-18T15:27:54.836Z,4.40
2018-03-18T15:30:22.318Z,4.10
2018-03-18T15:32:49.763Z,4.10
2018-03-18T15:35:17.227Z,4.00
2018-03-18T15:37:44.684Z,3.80
2018-03-18T15:40:12.169Z,3.80
2018-03-18T15:42:39.628Z,4.00
2018-03-18T15:45:07.088Z,4.20
2018-03-18T15:47:34.651Z,4.20
2018-03-18T15:50:02.120Z,4.30
2018-03-18T15:52:29.720Z,4.20
2018-03-18T15:54:57.119Z,4.10
2018-03-18T15:57:24.575Z,4.20
2018-03-18T15:59:52.044Z,4.20
2018-03-18T16:02:19.500Z,4.20
2018-03-18T16:04:46.960Z,4.10
2018-03-18T16:07:14.416Z,4.20
2018-03-18T16:09:41.894Z,4.10
2018-03-18T16:12:09.347Z,3.90
2018-03-18T16:14:36.807Z,3.90
2018-03-18T16:17:05.047Z,3.90
2018-03-18T16:19:32.576Z,3.90
2018-03-18T16:22:00.054Z,3.80
2018-03-18T16:24:27.563Z,3.80
2018-03-18T16:26:55.044Z,3.70
2018-03-18T16:29:35.199Z,3.40
2018-03-18T16:32:02.705Z,3.40
2018-03-18T16:34:30.917Z,3.30
2018-03-18T16:36:58.583Z,3.20
2018-03-18T16:39:26.791Z,3.00
2018-03-18T16:41:54.283Z,3.00
2018-03-18T16:44:37.896Z,2.90
2018-03-18T16:47:05.467Z,2.90
2018-03-18T16:49:33.679Z,2.80
2018-03-18T16:52:01.225Z,2.80
2018-03-18T16:54:28.680Z,2.90
2018-03-18T16:56:56.908Z,2.80
2018-03-18T16:59:24.360Z,2.80
2018-03-18T17:01:51.827Z,2.80
2018-03-18T17:04:19.288Z,2.80
2018-03-18T17:06:47.584Z,2.60
2018-03-18T17:09:15.048Z,2.60
2018-03-18T17:11:43.279Z,2.50
2018-03-18T17:14:10.855Z,2.50
2018-03-18T17:16:38.319Z,2.50
2018-03-18T17:19:05.788Z,2.50
2018-03-18T17:21:33.251Z,2.40
2018-03-18T17:24:00.726Z,2.30
2018-03-18T17:26:28.195Z,2.30
2018-03-18T17:28:55.674Z,2.20
2018-03-18T17:31:23.142Z,2.10
2018-03-18T17:33:50.715Z,2.10
2018-03-18T17:36:18.172Z,2.00
2018-03-18T17:38:45.635Z,1.90
2018-03-18T17:41:13.283Z,1.80
2018-03-18T17:43:40.758Z,1.80
2018-03-18T17:46:20.247Z,1.80
2018-03-18T17:48:59.716Z,1.70
2018-03-18T17:51:39.154Z,1.70
2018-03-18T17:54:18.476Z,1.60
2018-03-18T17:56:46.751Z,1.50
2018-03-18T17:59:14.217Z,1.40
2018-03-18T18:01:41.768Z,1.40
2018-03-18T18:04:09.983Z,1.40
2018-03-18T18:06:37.463Z,1.40
2018-03-18T18:09:04.951Z,1.40
2018-03-18T18:11:32.427Z,1.30
2018-03-18T18:13:59.884Z,1.30
2018-03-18T18:16:27.347Z,1.30
2018-03-18T18:18:54.800Z,1.30
2018-03-18T18:21:22.270Z,1.20
2018-03-18T18:23:49.784Z,1.20
2018-03-18T18:26:17.259Z,1.20
2018-03-18T18:28:44.719Z,1.20
2018-03-18T18:31:12.246Z,1.20
2018-03-18T18:33:39.697Z,1.20
2018-03-18T18:36:07.958Z,1.10
2018-03-18T18:38:35.429Z,1.20
2018-03-18T18:41:02.888Z,1.10
2018-03-18T18:43:30.461Z,1.10
2018-03-18T18:45:57.923Z,1.10
2018-03-18T18:48:25.391Z,1.00
2018-03-18T18:50:53.027Z,1.00
2018-03-18T18:53:20.498Z,1.00
2018-03-18T18:55:47.947Z,1.00
2018-03-18T18:58:16.175Z,0.90
2018-03-18T19:00:43.627Z,0.80
2018-03-18T19:03:11.139Z,0.80
2018-03-18T19:05:38.675Z,0.80
2018-03-18T19:08:06.138Z,0.80
2018-03-18T19:10:33.596Z,0.70
2018-03-18T19:13:01.130Z,0.70
2018-03-18T19:15:28.597Z,0.60
2018-03-18T19:17:57.652Z,0.60
2018-03-18T19:20:25.167Z,0.60
2018-03-18T19:22:52.623Z,0.60
2018-03-18T19:25:20.095Z,0.50
2018-03-18T19:27:47.556Z,0.60
2018-03-18T19:30:15.051Z,0.50
2018-03-18T19:32:42.537Z,0.50
2018-03-18T19:35:10.003Z,0.50
2018-03-18T19:37:37.565Z,0.50
2018-03-18T19:40:05.032Z,0.50
2018-03-18T19:42:32.502Z,0.40
2018-03-18T19:44:59.967Z,0.50
2018-03-18T19:47:27.420Z,0.50
2018-03-18T19:49:56.264Z,0.40
2018-03-18T19:52:23.708Z,0.40
2018-03-18T19:54:51.171Z,0.40
2018-03-18T19:57:18.665Z,0.40
2018-03-18T19:59:46.144Z,0.30
2018-03-18T20:02:13.606Z,0.30
2018-03-18T20:04:41.067Z,0.40
2018-03-18T20:07:08.536Z,0.30
2018-03-18T20:09:35.983Z,0.30
2018-03-18T20:12:03.452Z,0.30
2018-03-18T20:14:31.821Z,0.30
2018-03-18T20:16:59.604Z,0.30
2018-03-18T20:19:27.178Z,0.30
2018-03-18T20:21:54.652Z,0.30
2018-03-18T20:24:22.128Z,0.30
2018-03-18T20:26:49.617Z,0.30
2018-03-18T20:29:17.081Z,0.30
2018-03-18T20:31:44.588Z,0.30
2018-03-18T20:34:12.803Z,0.40
2018-03-18T20:36:41.036Z,0.40
2018-03-18T20:39:08.491Z,0.40
2018-03-18T20:41:36.004Z,0.40
2018-03-18T20:44:03.620Z,0.30
2018-03-18T20:46:31.093Z,0.40
2018-03-18T20:48:59.322Z,0.40
2018-03-18T20:51:26.787Z,0.40
2018-03-18T20:53:54.251Z,0.40
2018-03-18T20:56:21.695Z,0.40
2018-03-18T20:58:49.266Z,0.40
2018-03-18T21:01:17.475Z,0.40
2018-03-18T21:03:44.944Z,0.40
2018-03-18T21:06:12.424Z,0.40
2018-03-18T21:08:39.874Z,0.40
2018-03-18T21:11:07.328Z,0.40
2018-03-18T21:13:35.568Z,0.40
2018-03-18T21:16:03.048Z,0.40
2018-03-18T21:18:31.390Z,0.30
2018-03-18T21:20:58.958Z,0.30
2018-03-18T21:23:26.427Z,0.30
2018-03-18T21:25:53.883Z,0.30
2018-03-18T21:28:22.138Z,0.30
2018-03-18T21:30:49.721Z,0.20
2018-03-18T21:33:17.126Z,0.20
2018-03-18T21:35:44.604Z,0.20
2018-03-18T21:38:12.174Z,0.20
2018-03-18T21:40:39.696Z,0.20
2018-03-18T21:43:07.139Z,0.20
2018-03-18T21:45:34.594Z,0.20
2018-03-18T21:48:02.047Z,0.20
2018-03-18T21:50:30.278Z,0.20
2018-03-18T21:52:57.739Z,0.10
2018-03-18T21:55:25.246Z,0.20
2018-03-18T21:57:52.699Z,0.20
2018-03-18T22:00:20.161Z,0.20
2018-03-18T22:02:47.607Z,0.10
2018-03-18T22:05:15.084Z,0.20
2018-03-18T22:07:42.531Z,0.20
2018-03-18T22:10:10.752Z,0.20
2018-03-18T22:12:38.215Z,0.10
2018-03-18T22:15:05.686Z,0.10
2018-03-18T22:17:33.147Z,0.10
2018-03-18T22:20:00.607Z,0.10
2018-03-18T22:22:28.119Z,0.00
2018-03-18T22:24:55.568Z,0.00
2018-03-18T22:27:23.031Z,-0.10
2018-03-18T22:29:50.484Z,-0.10
2018-03-18T22:32:18.057Z,-0.10
2018-03-18T22:34:45.629Z,-0.10
2018-03-18T22:37:13.103Z,-0.10
2018-03-18T22:39:40.611Z,-0.10
2018-03-18T22:42:08.071Z,-0.10
2018-03-18T22:44:35.559Z,-0.20
2018-03-18T22:47:03.080Z,-0.20
2018-03-18T22:49:30.536Z,-0.30
2018-03-18T22:51:59.683Z,-0.30
2018-03-18T22:54:27.155Z,-0.30
2018-03-18T22:56:54.607Z,-0.30
2018-03-18T22:59:22.074Z,-0.30
2018-03-18T23:01:49.531Z,-0.30
2018-03-18T23:04:17.759Z,-0.40
2018-03-18T23:06:45.239Z,-0.40
2018-03-18T23:09:12.766Z,-0.40
2018-03-18T23:11:40.980Z,-0.40
2018-03-18T23:14:08.446Z,-0.40
2018-03-18T23:16:35.903Z,-0.40
2018-03-18T23:19:03.395Z,-0.40
2018-03-18T23:21:30.851Z,-0.50
2018-03-18T23:23:58.335Z,-0.50
2018-03-18T23:26:25.795Z,-0.40
2018-03-18T23:28:53.271Z,-0.50
2018-03-18T23:31:20.725Z,-0.50
2018-03-18T23:33:48.196Z,-0.50
2018-03-18T23:36:15.753Z,-0.50
2018-03-18T23:38:43.963Z,-0.50
2018-03-18T23:41:11.444Z,-0.50
2018-03-18T23:43:38.903Z,-0.50
2018-03-18T23:46:06.399Z,-0.50
2018-03-18T23:48:33.859Z,-0.50
2018-03-18T23:51:01.335Z,-0.50
2018-03-18T23:53:28.792Z,-0.50
2018-03-18T23:55:56.255Z,-0.50
2018-03-18T23:58:23.711Z,-0.40
